Time;durP1;ratioP1;P1;durP2;ratioP2;P2;SDS_P1;SDS_P2;PMS_P1;PMS_P2;Temp;Humidity;BMP_temperature;BMP_pressure;BME280_temperature;BME280_humidity;BME280_pressure;Samples;Min_cycle;Max_cycle;Signal;HPM_P1;HPM_P2
2023/12/22 00:00:30;;;;;;;7.03;1.42;;;;;;;;;;5073666;28;20257;-32
2023/12/22 00:02:55;;;;;;;9.63;1.97;;;;;;;;;;5073784;28;20040;-31
2023/12/22 00:05:20;;;;;;;8.37;1.27;;;;;;;;;;5073326;28;20668;-31
2023/12/22 00:07:45;;;;;;;7.60;1.45;;;;;;;;;;5073886;28;20254;-31
2023/12/22 00:10:10;;;;;;;10.20;1.43;;;;;;;;;;5073568;28;20020;-33
2023/12/22 00:12:38;;;;;;;6.53;1.45;;;;;;;;;;5073429;28;20290;-32
2023/12/22 00:15:03;;;;;;;5.47;0.98;;;;;;;;;;5073422;28;20028;-32
2023/12/22 00:17:28;;;;;;;9.88;1.95;;;;;;;;;;5073170;28;20376;-32
2023/12/22 00:19:55;;;;;;;10.03;1.63;;;;;;;;;;5073072;28;20070;-32
2023/12/22 00:22:20;;;;;;;10.93;1.63;;;;;;;;;;5073332;28;20259;-31
2023/12/22 00:24:45;;;;;;;8.30;1.15;;;;;;;;;;5073349;28;20499;-32
2023/12/22 00:27:10;;;;;;;6.87;1.20;;;;;;;;;;5073655;28;20012;-35
2023/12/22 00:29:37;;;;;;;7.97;1.30;;;;;;;;;;5073108;28;20579;-33
2023/12/22 00:32:02;;;;;;;4.82;0.93;;;;;;;;;;5073068;28;20317;-31
2023/12/22 00:34:27;;;;;;;6.57;1.00;;;;;;;;;;5072933;28;20029;-32
2023/12/22 00:36:52;;;;;;;9.23;1.20;;;;;;;;;;5073104;28;20027;-32
2023/12/22 00:39:18;;;;;;;9.03;1.50;;;;;;;;;;5073412;28;20278;-32
2023/12/22 00:41:43;;;;;;;10.07;1.63;;;;;;;;;;5073217;28;20255;-32
2023/12/22 00:44:08;;;;;;;7.57;1.60;;;;;;;;;;5073068;28;20017;-31
2023/12/22 00:46:33;;;;;;;8.27;1.50;;;;;;;;;;5072962;28;20239;-32
2023/12/22 00:48:58;;;;;;;6.47;1.20;;;;;;;;;;5072869;28;20270;-32
2023/12/22 00:51:23;;;;;;;9.32;1.45;;;;;;;;;;5073451;28;20028;-31
2023/12/22 00:53:48;;;;;;;6.87;1.40;;;;;;;;;;5073388;28;20251;-31
2023/12/22 00:56:14;;;;;;;10.57;1.70;;;;;;;;;;5072887;28;20729;-32
2023/12/22 00:58:39;;;;;;;10.03;1.63;;;;;;;;;;5073307;28;20275;-32
2023/12/22 01:01:05;;;;;;;7.10;1.02;;;;;;;;;;5073036;28;20254;-33
2023/12/22 01:03:30;;;;;;;11.07;1.63;;;;;;;;;;5072848;28;20049;-32
2023/12/22 01:05:55;;;;;;;7.38;1.15;;;;;;;;;;5073284;28;20013;-33
2023/12/22 01:08:20;;;;;;;12.37;1.97;;;;;;;;;;5076451;28;20036;-32
2023/12/22 01:10:45;;;;;;;14.73;1.75;;;;;;;;;;5076646;28;20785;-32
2023/12/22 01:13:11;;;;;;;11.25;1.50;;;;;;;;;;5076340;28;20111;-32
2023/12/22 01:15:36;;;;;;;13.25;2.10;;;;;;;;;;5076291;28;20035;-32
2023/12/22 01:18:01;;;;;;;10.93;1.40;;;;;;;;;;5076242;28;20087;-32
2023/12/22 01:20:26;;;;;;;14.43;2.00;;;;;;;;;;5076699;28;20267;-32
2023/12/22 01:22:51;;;;;;;15.27;1.87;;;;;;;;;;5076211;28;20017;-32
2023/12/22 01:25:16;;;;;;;8.50;1.53;;;;;;;;;;5076637;28;20262;-32
2023/12/22 01:27:42;;;;;;;16.50;1.90;;;;;;;;;;5076067;28;20262;-32
2023/12/22 01:30:07;;;;;;;11.50;1.60;;;;;;;;;;5076338;28;20326;-32
2023/12/22 01:32:35;;;;;;;10.85;1.90;;;;;;;;;;5076300;28;20721;-32
2023/12/22 01:35:09;;;;;;;18.40;1.83;;;;;;;;;;5076174;28;20026;-32
2023/12/22 01:37:34;;;;;;;14.88;1.88;;;;;;;;;;5076179;28;20099;-33
2023/12/22 01:39:59;;;;;;;11.70;1.93;;;;;;;;;;5076260;28;20091;-32
2023/12/22 01:42:24;;;;;;;15.07;2.50;;;;;;;;;;5076339;28;20242;-31
2023/12/22 01:44:49;;;;;;;9.53;1.97;;;;;;;;;;5075800;28;20793;-31
2023/12/22 01:47:14;;;;;;;12.13;1.60;;;;;;;;;;5076239;28;20246;-31
2023/12/22 01:49:40;;;;;;;15.13;2.25;;;;;;;;;;5075598;28;20338;-31
2023/12/22 01:52:05;;;;;;;17.13;2.17;;;;;;;;;;5075884;28;20024;-31
2023/12/22 01:54:30;;;;;;;15.38;2.13;;;;;;;;;;5075517;28;20349;-32
2023/12/22 01:56:56;;;;;;;15.77;2.17;;;;;;;;;;5075501;28;20032;-31
2023/12/22 01:59:21;;;;;;;15.50;2.72;;;;;;;;;;5075900;28;20023;-33
2023/12/22 02:01:46;;;;;;;15.77;2.17;;;;;;;;;;5075320;28;20021;-32
2023/12/22 02:04:12;;;;;;;17.27;2.15;;;;;;;;;;5075383;28;20045;-32
2023/12/22 02:06:37;;;;;;;17.75;2.67;;;;;;;;;;5075644;28;20085;-32
2023/12/22 02:09:04;;;;;;;15.35;2.40;;;;;;;;;;5075344;28;20024;-31
2023/12/22 02:11:29;;;;;;;18.77;3.10;;;;;;;;;;5075469;28;20017;-31
2023/12/22 02:13:54;;;;;;;17.90;2.35;;;;;;;;;;5075263;28;20024;-31
2023/12/22 02:16:19;;;;;;;27.97;2.87;;;;;;;;;;5075115;28;20025;-32
2023/12/22 02:18:47;;;;;;;15.48;2.67;;;;;;;;;;5074997;28;20279;-31
2023/12/22 02:21:12;;;;;;;19.27;2.72;;;;;;;;;;5075176;28;20334;-32
2023/12/22 02:23:37;;;;;;;19.00;3.03;;;;;;;;;;5075653;28;20048;-32
2023/12/22 02:26:06;;;;;;;24.37;3.93;;;;;;;;;;5075041;28;20243;-31
2023/12/22 02:28:32;;;;;;;22.27;2.58;;;;;;;;;;5075253;28;20277;-32
2023/12/22 02:31:16;;;;;;;24.48;3.03;;;;;;;;;;5074885;28;20464;-31
2023/12/22 02:33:42;;;;;;;23.52;3.42;;;;;;;;;;5075373;28;20489;-33
2023/12/22 02:36:08;;;;;;;25.30;2.95;;;;;;;;;;5075044;28;20016;-33
2023/12/22 02:38:34;;;;;;;18.45;2.92;;;;;;;;;;5074719;28;20060;-32
2023/12/22 02:40:59;;;;;;;17.65;2.80;;;;;;;;;;5074700;28;20017;-32
2023/12/22 02:43:24;;;;;;;25.65;3.15;;;;;;;;;;5073378;28;20042;-31
2023/12/22 02:45:50;;;;;;;25.43;3.07;;;;;;;;;;5075129;28;20021;-31
2023/12/22 02:48:15;;;;;;;28.90;3.38;;;;;;;;;;5074783;28;20258;-32
2023/12/22 02:50:41;;;;;;;16.77;2.58;;;;;;;;;;5074498;28;20017;-32
2023/12/22 02:53:06;;;;;;;15.25;2.83;;;;;;;;;;5074397;28;20020;-33
2023/12/22 02:55:31;;;;;;;18.48;2.80;;;;;;;;;;5074447;28;20021;-33
2023/12/22 02:57:56;;;;;;;23.93;2.67;;;;;;;;;;5074255;28;20417;-33
2023/12/22 03:00:22;;;;;;;25.10;3.05;;;;;;;;;;5073855;28;20357;-33
2023/12/22 03:02:47;;;;;;;23.40;3.75;;;;;;;;;;5074145;28;20083;-31
2023/12/22 03:05:12;;;;;;;24.77;2.80;;;;;;;;;;5074538;28;20016;-32
2023/12/22 03:07:37;;;;;;;22.17;2.50;;;;;;;;;;5074149;28;20341;-31
2023/12/22 03:10:03;;;;;;;22.90;2.53;;;;;;;;;;5074653;28;20073;-32
2023/12/22 03:12:28;;;;;;;27.10;2.83;;;;;;;;;;5074258;28;20246;-31
2023/12/22 03:14:53;;;;;;;24.13;4.00;;;;;;;;;;5074222;28;20478;-31
2023/12/22 03:17:18;;;;;;;19.20;2.65;;;;;;;;;;5074002;28;20461;-32
2023/12/22 03:19:43;;;;;;;15.83;2.37;;;;;;;;;;5073931;28;20523;-34
2023/12/22 03:22:09;;;;;;;22.83;2.20;;;;;;;;;;5074442;28;20262;-31
2023/12/22 03:24:35;;;;;;;16.17;2.60;;;;;;;;;;5074514;28;20375;-33
2023/12/22 03:27:00;;;;;;;18.80;2.33;;;;;;;;;;5074137;28;20023;-31
2023/12/22 03:29:25;;;;;;;26.13;2.93;;;;;;;;;;5073190;28;20028;-31
2023/12/22 03:31:50;;;;;;;18.00;2.60;;;;;;;;;;5074209;28;20267;-33
2023/12/22 03:34:15;;;;;;;14.53;2.30;;;;;;;;;;5073708;28;20328;-33
2023/12/22 03:36:40;;;;;;;16.63;2.20;;;;;;;;;;5073731;28;20262;-33
2023/12/22 03:39:06;;;;;;;10.07;1.77;;;;;;;;;;5073561;28;20375;-32
2023/12/22 03:41:31;;;;;;;8.43;1.40;;;;;;;;;;5073506;28;20074;-32
2023/12/22 03:43:56;;;;;;;9.60;1.65;;;;;;;;;;5074105;28;20251;-33
2023/12/22 03:46:23;;;;;;;7.30;1.38;;;;;;;;;;5074183;28;20016;-32
2023/12/22 03:48:48;;;;;;;13.43;1.67;;;;;;;;;;5073831;28;20013;-32
2023/12/22 03:51:14;;;;;;;9.80;1.45;;;;;;;;;;5073548;28;20023;-34
2023/12/22 03:53:40;;;;;;;14.27;1.77;;;;;;;;;;5073535;28;20077;-32
2023/12/22 03:56:06;;;;;;;10.80;1.52;;;;;;;;;;5073571;28;20111;-33
2023/12/22 03:58:32;;;;;;;11.20;1.85;;;;;;;;;;5073404;28;20468;-32
2023/12/22 04:00:57;;;;;;;14.95;1.60;;;;;;;;;;5073389;28;20013;-32
2023/12/22 04:03:22;;;;;;;13.20;2.13;;;;;;;;;;5073400;28;20051;-32
2023/12/22 04:05:47;;;;;;;7.23;1.30;;;;;;;;;;5073689;28;20734;-34
2023/12/22 04:08:13;;;;;;;16.45;1.80;;;;;;;;;;5073293;28;20362;-32
2023/12/22 04:10:39;;;;;;;14.80;1.90;;;;;;;;;;5073337;28;20059;-32
2023/12/22 04:13:04;;;;;;;14.63;2.67;;;;;;;;;;5073354;28;20020;-34
2023/12/22 04:15:29;;;;;;;14.52;2.10;;;;;;;;;;5073325;28;20259;-32
2023/12/22 04:17:54;;;;;;;11.33;1.77;;;;;;;;;;5073257;28;20112;-32
2023/12/22 04:20:19;;;;;;;14.00;1.98;;;;;;;;;;5073226;28;20348;-32
2023/12/22 04:22:44;;;;;;;17.17;1.85;;;;;;;;;;5073821;28;20454;-32
2023/12/22 04:25:10;;;;;;;23.37;2.43;;;;;;;;;;5073260;28;20020;-34
2023/12/22 04:27:35;;;;;;;17.00;2.27;;;;;;;;;;5073336;28;20266;-34
2023/12/22 04:30:00;;;;;;;26.00;2.92;;;;;;;;;;5073467;28;20665;-32
2023/12/22 04:32:25;;;;;;;21.30;2.72;;;;;;;;;;5072557;28;20020;-33
2023/12/22 04:34:51;;;;;;;19.97;2.57;;;;;;;;;;5071254;28;20516;-33
2023/12/22 04:37:16;;;;;;;18.15;2.63;;;;;;;;;;5071289;28;20307;-34
2023/12/22 04:39:41;;;;;;;17.77;2.72;;;;;;;;;;5071286;28;20016;-34
2023/12/22 04:42:06;;;;;;;25.58;3.03;;;;;;;;;;5074376;28;20355;-33
2023/12/22 04:44:31;;;;;;;16.67;2.97;;;;;;;;;;5075263;28;20097;-34
2023/12/22 04:46:56;;;;;;;20.07;2.43;;;;;;;;;;5075192;28;20263;-32
2023/12/22 04:49:22;;;;;;;21.73;3.13;;;;;;;;;;5075994;28;20787;-32
2023/12/22 04:51:47;;;;;;;20.33;2.50;;;;;;;;;;5076814;28;20294;-32
2023/12/22 04:54:12;;;;;;;27.90;3.10;;;;;;;;;;5076995;28;20017;-32
2023/12/22 04:56:37;;;;;;;30.13;3.40;;;;;;;;;;5076743;28;20017;-34
2023/12/22 04:59:02;;;;;;;21.77;2.80;;;;;;;;;;5076857;28;20362;-32
2023/12/22 05:01:27;;;;;;;26.05;3.50;;;;;;;;;;5076572;28;20259;-34
2023/12/22 05:03:54;;;;;;;28.47;3.27;;;;;;;;;;5076421;28;20488;-33
2023/12/22 05:06:19;;;;;;;19.60;2.80;;;;;;;;;;5076825;28;20721;-33
2023/12/22 05:08:44;;;;;;;25.20;3.53;;;;;;;;;;5076500;28;20023;-32
2023/12/22 05:11:09;;;;;;;20.20;2.63;;;;;;;;;;5076656;28;20111;-33
2023/12/22 05:13:34;;;;;;;26.20;3.13;;;;;;;;;;5076361;28;20034;-34
2023/12/22 05:15:59;;;;;;;19.30;2.57;;;;;;;;;;5076913;28;20255;-34
2023/12/22 05:18:25;;;;;;;22.93;2.50;;;;;;;;;;5076555;28;20266;-32
2023/12/22 05:20:52;;;;;;;20.70;3.67;;;;;;;;;;5076245;28;20243;-32
2023/12/22 05:23:17;;;;;;;20.77;3.45;;;;;;;;;;5076204;28;20048;-33
2023/12/22 05:25:42;;;;;;;21.67;3.00;;;;;;;;;;5076708;28;20016;-33
2023/12/22 05:28:07;;;;;;;23.93;2.40;;;;;;;;;;5076150;28;20246;-32
2023/12/22 05:30:32;;;;;;;23.13;2.97;;;;;;;;;;5076120;28;20247;-33
2023/12/22 05:32:57;;;;;;;16.17;2.20;;;;;;;;;;5076043;28;20345;-33
2023/12/22 05:35:22;;;;;;;18.37;2.33;;;;;;;;;;5074739;28;20293;-33
2023/12/22 05:37:48;;;;;;;21.73;2.30;;;;;;;;;;5075951;28;20267;-32
2023/12/22 05:40:13;;;;;;;12.37;1.97;;;;;;;;;;5075744;28;20783;-32
2023/12/22 05:42:38;;;;;;;22.02;2.50;;;;;;;;;;5076160;28;20259;-32
2023/12/22 05:45:03;;;;;;;17.10;2.30;;;;;;;;;;5075930;28;20103;-33
2023/12/22 05:47:29;;;;;;;18.33;2.22;;;;;;;;;;5075717;28;20016;-32
2023/12/22 05:49:54;;;;;;;13.00;2.10;;;;;;;;;;5076702;28;20020;-32
2023/12/22 05:52:19;;;;;;;19.60;2.27;;;;;;;;;;5075536;28;20251;-32
2023/12/22 05:54:44;;;;;;;25.13;3.97;;;;;;;;;;5075878;28;20821;-33
2023/12/22 05:57:09;;;;;;;15.03;2.17;;;;;;;;;;5075885;28;20259;-33
2023/12/22 05:59:34;;;;;;;21.00;2.40;;;;;;;;;;5075744;28;20611;-32
2023/12/22 06:02:00;;;;;;;13.00;2.17;;;;;;;;;;5075468;28;20024;-32
2023/12/22 06:04:25;;;;;;;16.52;2.35;;;;;;;;;;5075344;28;20610;-33
2023/12/22 06:06:50;;;;;;;20.67;2.35;;;;;;;;;;5075480;28;20012;-32
2023/12/22 06:09:17;;;;;;;16.52;2.72;;;;;;;;;;5075349;28;20036;-33
2023/12/22 06:11:42;;;;;;;12.52;2.60;;;;;;;;;;5075506;28;20120;-32
2023/12/22 06:14:07;;;;;;;14.02;2.13;;;;;;;;;;5075236;28;20056;-32
2023/12/22 06:16:32;;;;;;;21.30;3.33;;;;;;;;;;5075246;28;20507;-32
2023/12/22 06:18:58;;;;;;;20.60;2.37;;;;;;;;;;5075707;28;20095;-32
2023/12/22 06:21:23;;;;;;;19.00;2.92;;;;;;;;;;5075379;28;20255;-33
2023/12/22 06:23:48;;;;;;;26.97;3.40;;;;;;;;;;5075640;28;20017;-32
2023/12/22 06:26:13;;;;;;;24.85;2.55;;;;;;;;;;5075559;28;20304;-33
2023/12/22 06:28:39;;;;;;;21.08;2.65;;;;;;;;;;5075171;28;20047;-32
2023/12/22 06:31:05;;;;;;;18.13;2.88;;;;;;;;;;5074840;28;20036;-32
2023/12/22 06:33:30;;;;;;;22.00;3.20;;;;;;;;;;5075447;28;20027;-33
2023/12/22 06:35:55;;;;;;;22.55;2.88;;;;;;;;;;5074818;28;20455;-33
2023/12/22 06:38:21;;;;;;;14.63;2.97;;;;;;;;;;5075343;28;20027;-32
2023/12/22 06:40:49;;;;;;;28.20;3.13;;;;;;;;;;5074699;28;20817;-34
2023/12/22 06:43:14;;;;;;;18.38;3.03;;;;;;;;;;5073390;28;20684;-33
2023/12/22 06:45:39;;;;;;;17.40;2.70;;;;;;;;;;5074907;28;20017;-37
2023/12/22 06:48:05;;;;;;;27.55;3.42;;;;;;;;;;5074828;28;20044;-34
2023/12/22 06:50:30;;;;;;;21.75;3.08;;;;;;;;;;5074821;28;20110;-33
2023/12/22 06:52:55;;;;;;;20.03;2.60;;;;;;;;;;5074366;28;20050;-34
2023/12/22 06:55:20;;;;;;;22.77;3.23;;;;;;;;;;5074992;28;20255;-32
2023/12/22 06:57:46;;;;;;;24.30;3.33;;;;;;;;;;5074598;28;20259;-32
2023/12/22 07:00:11;;;;;;;22.42;2.88;;;;;;;;;;5072966;28;20480;-32
2023/12/22 07:02:37;;;;;;;30.35;3.33;;;;;;;;;;5074514;28;20279;-31
2023/12/22 07:05:23;;;;;;;27.42;3.30;;;;;;;;;;5073843;28;20014;-32
2023/12/22 07:07:48;;;;;;;21.83;3.25;;;;;;;;;;5074441;28;20025;-33
2023/12/22 07:10:13;;;;;;;27.00;3.15;;;;;;;;;;5074674;28;20039;-31
2023/12/22 07:12:41;;;;;;;26.20;3.67;;;;;;;;;;5074033;28;20460;-31
2023/12/22 07:15:07;;;;;;;26.27;3.05;;;;;;;;;;5074261;28;20745;-31
2023/12/22 07:17:32;;;;;;;26.88;4.00;;;;;;;;;;5073933;28;20016;-33
2023/12/22 07:19:57;;;;;;;24.95;3.60;;;;;;;;;;5074145;28;20082;-31
2023/12/22 07:22:23;;;;;;;24.00;3.92;;;;;;;;;;5073914;28;20046;-32
2023/12/22 07:24:49;;;;;;;27.17;3.72;;;;;;;;;;5074430;28;20016;-32
2023/12/22 07:27:14;;;;;;;30.25;3.80;;;;;;;;;;5074043;28;20417;-31
2023/12/22 07:29:39;;;;;;;28.87;3.73;;;;;;;;;;5072697;28;20024;-32
2023/12/22 07:32:05;;;;;;;23.98;4.20;;;;;;;;;;5072610;28;20258;-31
2023/12/22 07:34:30;;;;;;;21.65;3.33;;;;;;;;;;5073277;28;20020;-32
2023/12/22 07:36:55;;;;;;;26.70;3.63;;;;;;;;;;5073717;28;20024;-32
2023/12/22 07:39:22;;;;;;;25.75;3.00;;;;;;;;;;5073739;28;20757;-32
2023/12/22 07:41:48;;;;;;;24.23;2.78;;;;;;;;;;5073946;28;20089;-32
2023/12/22 07:44:13;;;;;;;20.60;2.92;;;;;;;;;;5073904;28;20110;-31
2023/12/22 07:46:38;;;;;;;23.02;3.63;;;;;;;;;;5072338;28;20062;-31
2023/12/22 07:49:03;;;;;;;24.35;3.38;;;;;;;;;;5071551;28;20023;-33
2023/12/22 07:51:28;;;;;;;32.60;4.40;;;;;;;;;;5071279;28;20108;-32
2023/12/22 07:53:54;;;;;;;25.50;4.60;;;;;;;;;;5071296;28;20336;-33
2023/12/22 07:56:19;;;;;;;32.37;4.40;;;;;;;;;;5071300;28;20302;-32
2023/12/22 07:58:44;;;;;;;26.70;4.13;;;;;;;;;;5071143;28;20283;-31
2023/12/22 08:01:09;;;;;;;32.13;3.70;;;;;;;;;;5071969;28;20302;-32
2023/12/22 08:03:34;;;;;;;28.33;3.90;;;;;;;;;;5073223;28;20279;-31
2023/12/22 08:05:59;;;;;;;22.80;4.05;;;;;;;;;;5073259;28;20281;-33
2023/12/22 08:08:25;;;;;;;30.33;3.88;;;;;;;;;;5073892;28;20017;-31
2023/12/22 08:10:50;;;;;;;26.47;3.90;;;;;;;;;;5072690;28;20057;-32
2023/12/22 08:13:16;;;;;;;33.50;4.50;;;;;;;;;;5073143;28;20304;-31
2023/12/22 08:15:42;;;;;;;33.10;4.30;;;;;;;;;;5074315;28;20749;-32
2023/12/22 08:18:07;;;;;;;37.28;4.25;;;;;;;;;;5077402;28;20100;-32
2023/12/22 08:20:32;;;;;;;30.00;3.60;;;;;;;;;;5077574;28;20111;-31
2023/12/22 08:22:57;;;;;;;21.20;3.13;;;;;;;;;;5077847;28;20017;-32
2023/12/22 08:25:22;;;;;;;15.57;2.93;;;;;;;;;;5077789;28;20266;-32
2023/12/22 08:27:47;;;;;;;19.67;2.67;;;;;;;;;;5077353;28;20263;-31
2023/12/22 08:30:14;;;;;;;18.60;3.00;;;;;;;;;;5077190;28;20243;-32
2023/12/22 08:32:39;;;;;;;19.45;3.90;;;;;;;;;;5077283;28;20672;-31
2023/12/22 08:35:04;;;;;;;14.50;2.70;;;;;;;;;;5077061;28;20024;-32
2023/12/22 08:37:30;;;;;;;16.75;2.65;;;;;;;;;;5077554;28;20081;-31
2023/12/22 08:39:55;;;;;;;22.65;3.28;;;;;;;;;;5076868;28;20027;-31
2023/12/22 08:42:22;;;;;;;19.08;3.33;;;;;;;;;;5077022;28;20024;-32
2023/12/22 08:44:47;;;;;;;17.55;3.38;;;;;;;;;;5077145;28;20412;-32
2023/12/22 08:47:12;;;;;;;14.90;2.90;;;;;;;;;;5076872;28;20096;-32
2023/12/22 08:49:37;;;;;;;19.37;3.13;;;;;;;;;;5076758;28;20263;-32
2023/12/22 08:52:03;;;;;;;30.37;3.50;;;;;;;;;;5076967;28;20266;-32
2023/12/22 08:54:29;;;;;;;19.48;3.45;;;;;;;;;;5077328;28;20255;-32
2023/12/22 08:56:54;;;;;;;20.20;3.10;;;;;;;;;;5077251;28;20066;-32
2023/12/22 08:59:19;;;;;;;20.23;2.90;;;;;;;;;;5076789;28;20024;-32
2023/12/22 09:01:45;;;;;;;19.83;3.13;;;;;;;;;;5076719;28;20060;-32
2023/12/22 09:04:11;;;;;;;20.30;3.22;;;;;;;;;;5076346;28;20079;-32
2023/12/22 09:06:36;;;;;;;18.75;3.17;;;;;;;;;;5077059;28;20012;-33
2023/12/22 09:09:01;;;;;;;15.67;2.53;;;;;;;;;;5077052;28;20112;-32
2023/12/22 09:11:26;;;;;;;14.97;2.90;;;;;;;;;;5076281;28;20730;-32
2023/12/22 09:13:51;;;;;;;9.65;2.20;;;;;;;;;;5076264;28;20305;-32
2023/12/22 09:16:23;;;;;;;9.83;1.53;;;;;;;;;;5076319;28;20036;-32
2023/12/22 09:18:49;;;;;;;7.63;2.65;;;;;;;;;;5076725;28;20282;-32
2023/12/22 09:21:14;;;;;;;15.63;6.40;;;;;;;;;;5076560;28;20019;-32
2023/12/22 09:23:44;;;;;;;2.78;1.10;;;;;;;;;;5076235;28;20017;-31
2023/12/22 09:26:09;;;;;;;5.07;1.27;;;;;;;;;;5074965;28;20560;-31
2023/12/22 09:28:34;;;;;;;5.28;1.05;;;;;;;;;;5075194;28;20052;-32
2023/12/22 09:31:00;;;;;;;7.47;1.20;;;;;;;;;;5076526;28;20096;-31
2023/12/22 09:33:25;;;;;;;6.43;1.30;;;;;;;;;;5076672;28;20025;-31
2023/12/22 09:35:50;;;;;;;8.52;1.23;;;;;;;;;;5076159;28;20297;-32
2023/12/22 09:38:16;;;;;;;10.20;2.22;;;;;;;;;;5075469;28;20070;-32
2023/12/22 09:40:41;;;;;;;4.83;1.53;;;;;;;;;;5075364;28;20020;-32
2023/12/22 09:43:08;;;;;;;13.23;2.28;;;;;;;;;;5075577;28;20259;-32
2023/12/22 09:45:33;;;;;;;11.48;2.00;;;;;;;;;;5075398;28;20062;-31
2023/12/22 09:47:59;;;;;;;10.02;1.83;;;;;;;;;;5075315;28;20020;-33
2023/12/22 09:50:25;;;;;;;15.93;2.97;;;;;;;;;;5075382;28;20494;-32
2023/12/22 09:52:51;;;;;;;9.85;2.35;;;;;;;;;;5075740;28;20028;-31
2023/12/22 09:55:17;;;;;;;15.25;2.30;;;;;;;;;;5076015;28;20033;-32
2023/12/22 09:57:42;;;;;;;14.52;2.30;;;;;;;;;;5075657;28;20146;-31
2023/12/22 10:00:08;;;;;;;13.35;2.15;;;;;;;;;;5076306;28;20111;-32
2023/12/22 10:02:35;;;;;;;14.43;2.40;;;;;;;;;;5075617;28;20045;-32
2023/12/22 10:05:00;;;;;;;10.13;1.98;;;;;;;;;;5076012;28;20474;-32
2023/12/22 10:07:26;;;;;;;10.55;1.70;;;;;;;;;;5075433;28;20013;-32
2023/12/22 10:09:51;;;;;;;11.30;1.90;;;;;;;;;;5075922;28;20028;-31
2023/12/22 10:12:17;;;;;;;15.07;2.20;;;;;;;;;;5075307;28;20091;-31
2023/12/22 10:14:42;;;;;;;13.68;2.53;;;;;;;;;;5075504;28;20108;-31
2023/12/22 10:17:08;;;;;;;8.75;1.73;;;;;;;;;;5075154;28;20056;-32
2023/12/22 10:19:33;;;;;;;12.63;2.00;;;;;;;;;;5075225;28;20543;-32
2023/12/22 10:21:58;;;;;;;10.67;1.80;;;;;;;;;;5074000;28;20070;-32
2023/12/22 10:24:42;;;;;;;11.40;1.98;;;;;;;;;;5072907;28;20024;-32
2023/12/22 10:27:08;;;;;;;11.45;1.92;;;;;;;;;;5072969;28;20021;-32
2023/12/22 10:29:33;;;;;;;10.98;1.88;;;;;;;;;;5074414;28;20345;-31
2023/12/22 10:32:00;;;;;;;11.18;1.88;;;;;;;;;;5075138;28;20073;-31
2023/12/22 10:34:26;;;;;;;10.98;1.80;;;;;;;;;;5074857;28;20029;-32
2023/12/22 10:36:51;;;;;;;12.13;2.08;;;;;;;;;;5075522;28;20021;-32
2023/12/22 10:39:16;;;;;;;10.48;2.17;;;;;;;;;;5074949;28;20025;-33
2023/12/22 10:41:41;;;;;;;10.77;2.45;;;;;;;;;;5074796;28;20112;-32
2023/12/22 10:44:06;;;;;;;7.20;1.70;;;;;;;;;;5075161;28;20073;-33
2023/12/22 10:46:33;;;;;;;10.43;1.70;;;;;;;;;;5074727;28;20246;-32
2023/12/22 10:48:58;;;;;;;13.80;1.90;;;;;;;;;;5075054;28;20255;-31
2023/12/22 10:51:24;;;;;;;17.63;2.17;;;;;;;;;;5074515;28;20024;-32
2023/12/22 10:53:49;;;;;;;8.70;1.60;;;;;;;;;;5074397;28;20017;-32
2023/12/22 10:56:14;;;;;;;17.27;2.27;;;;;;;;;;5075373;28;20324;-32
2023/12/22 10:58:39;;;;;;;17.40;2.95;;;;;;;;;;5074185;28;20271;-32
2023/12/22 11:01:06;;;;;;;17.95;4.80;;;;;;;;;;5074360;28;20026;-32
2023/12/22 11:03:34;;;;;;;7.20;1.67;;;;;;;;;;5074301;28;20106;-32
2023/12/22 11:06:01;;;;;;;20.08;1.92;;;;;;;;;;5072281;28;20107;-32
2023/12/22 11:08:27;;;;;;;8.73;1.58;;;;;;;;;;5073827;28;20017;-33
2023/12/22 11:10:56;;;;;;;8.77;1.58;;;;;;;;;;5072398;28;20493;-33
2023/12/22 11:13:21;;;;;;;11.07;1.52;;;;;;;;;;5072065;28;20462;-32
2023/12/22 11:15:47;;;;;;;11.13;1.60;;;;;;;;;;5071929;28;20047;-33
2023/12/22 11:18:13;;;;;;;11.30;1.75;;;;;;;;;;5072175;28;20066;-32
2023/12/22 11:20:39;;;;;;;11.57;1.92;;;;;;;;;;5071897;28;20048;-33
2023/12/22 11:23:05;;;;;;;15.25;2.78;;;;;;;;;;5072019;28;20095;-32
2023/12/22 11:25:31;;;;;;;12.18;2.13;;;;;;;;;;5073631;28;20025;-33
2023/12/22 11:27:57;;;;;;;14.85;1.98;;;;;;;;;;5073915;28;20019;-33
2023/12/22 11:30:24;;;;;;;12.45;2.20;;;;;;;;;;5074367;28;20020;-32
2023/12/22 11:32:49;;;;;;;10.40;2.10;;;;;;;;;;5073855;28;20016;-32
2023/12/22 11:35:16;;;;;;;14.82;2.05;;;;;;;;;;5073903;28;20086;-33
2023/12/22 11:37:42;;;;;;;13.05;1.67;;;;;;;;;;5074934;28;20021;-33
2023/12/22 11:40:07;;;;;;;11.98;2.00;;;;;;;;;;5073627;28;20416;-33
2023/12/22 11:42:36;;;;;;;7.88;1.75;;;;;;;;;;5073854;28;20039;-32
2023/12/22 11:45:02;;;;;;;9.07;1.58;;;;;;;;;;5073990;28;20475;-32
2023/12/22 11:47:27;;;;;;;11.63;1.50;;;;;;;;;;5073681;28;20021;-33
2023/12/22 11:49:53;;;;;;;15.23;2.05;;;;;;;;;;5073718;28;20016;-33
2023/12/22 11:52:24;;;;;;;9.52;1.70;;;;;;;;;;5073077;28;20542;-33
2023/12/22 11:54:51;;;;;;;8.68;1.58;;;;;;;;;;5073852;28;20521;-33
2023/12/22 11:57:25;;;;;;;10.30;1.60;;;;;;;;;;5073715;28;20047;-33
2023/12/22 11:59:50;;;;;;;10.55;1.80;;;;;;;;;;5073378;28;20051;-32
2023/12/22 12:02:16;;;;;;;12.20;1.83;;;;;;;;;;5072783;28;20013;-32
2023/12/22 12:04:41;;;;;;;12.02;1.80;;;;;;;;;;5073689;28;20017;-33
2023/12/22 12:07:26;;;;;;;12.00;1.90;;;;;;;;;;5073393;28;20016;-33
2023/12/22 12:09:51;;;;;;;8.90;1.42;;;;;;;;;;5073176;28;20267;-33
2023/12/22 12:12:17;;;;;;;13.27;2.07;;;;;;;;;;5073578;28;20032;-32
2023/12/22 12:14:43;;;;;;;12.60;1.92;;;;;;;;;;5073365;28;20259;-32
2023/12/22 12:17:09;;;;;;;17.15;2.30;;;;;;;;;;5073564;28;20020;-33
2023/12/22 12:19:35;;;;;;;16.60;2.05;;;;;;;;;;5073546;28;20016;-33
2023/12/22 12:22:00;;;;;;;12.48;2.78;;;;;;;;;;5073205;28;20077;-33
2023/12/22 12:24:26;;;;;;;12.48;2.00;;;;;;;;;;5073883;28;20023;-32
2023/12/22 12:26:51;;;;;;;14.95;2.17;;;;;;;;;;5072982;28;20043;-33
2023/12/22 12:29:17;;;;;;;9.87;1.63;;;;;;;;;;5071433;28;20046;-32
2023/12/22 12:31:42;;;;;;;10.13;1.92;;;;;;;;;;5071445;28;20263;-32
2023/12/22 12:34:10;;;;;;;14.07;2.50;;;;;;;;;;5070959;28;20016;-33
2023/12/22 12:36:35;;;;;;;12.32;2.15;;;;;;;;;;5070747;28;20082;-33
2023/12/22 12:39:07;;;;;;;12.77;1.80;;;;;;;;;;5070769;28;20016;-32
2023/12/22 12:41:34;;;;;;;16.55;2.00;;;;;;;;;;5071788;28;20456;-33
2023/12/22 12:43:59;;;;;;;7.78;1.55;;;;;;;;;;5072535;28;20013;-33
2023/12/22 12:46:44;;;;;;;13.30;2.22;;;;;;;;;;5073201;28;20429;-33
2023/12/22 12:49:11;;;;;;;22.75;2.35;;;;;;;;;;5072725;28;20117;-32
2023/12/22 12:51:38;;;;;;;15.48;1.92;;;;;;;;;;5072942;28;20387;-33
2023/12/22 12:54:03;;;;;;;18.67;2.08;;;;;;;;;;5072887;28;20049;-33
2023/12/22 12:56:28;;;;;;;11.77;1.85;;;;;;;;;;5072873;28;20024;-33
2023/12/22 12:58:54;;;;;;;13.53;2.20;;;;;;;;;;5072728;28;20020;-32
2023/12/22 13:01:19;;;;;;;16.47;1.97;;;;;;;;;;5072886;28;20737;-32
2023/12/22 13:04:12;;;;;;;9.67;1.67;;;;;;;;;;5076323;28;20381;-33
2023/12/22 13:06:46;;;;;;;13.05;1.65;;;;;;;;;;5074839;28;20270;-33
2023/12/22 13:09:15;;;;;;;11.23;1.80;;;;;;;;;;5076395;28;20020;-32
2023/12/22 13:11:42;;;;;;;17.90;2.47;;;;;;;;;;5076822;28;20025;-33
2023/12/22 13:14:07;;;;;;;15.77;2.10;;;;;;;;;;5076648;28;20394;-33
2023/12/22 13:16:33;;;;;;;10.73;1.50;;;;;;;;;;5076751;28;20058;-33
2023/12/22 13:18:58;;;;;;;13.20;2.00;;;;;;;;;;5076313;28;20016;-33
2023/12/22 13:21:24;;;;;;;14.02;2.00;;;;;;;;;;5076230;28;20039;-33
2023/12/22 13:24:07;;;;;;;16.70;2.40;;;;;;;;;;5076210;28;20031;-33
2023/12/22 13:26:33;;;;;;;14.82;2.10;;;;;;;;;;5076169;28;20020;-33
2023/12/22 13:28:59;;;;;;;11.73;1.70;;;;;;;;;;5076650;28;20028;-32
2023/12/22 13:31:25;;;;;;;12.55;1.52;;;;;;;;;;5076757;28;20609;-35
2023/12/22 13:33:50;;;;;;;14.60;2.08;;;;;;;;;;5076118;28;20033;-32
2023/12/22 13:36:15;;;;;;;9.37;1.73;;;;;;;;;;5075967;28;20016;-33
2023/12/22 13:38:45;;;;;;;11.50;1.67;;;;;;;;;;5076458;28;20246;-31
2023/12/22 13:41:10;;;;;;;16.63;2.13;;;;;;;;;;5075850;28;20259;-32
2023/12/22 13:43:35;;;;;;;12.55;1.90;;;;;;;;;;5076214;28;20027;-34
2023/12/22 13:46:00;;;;;;;11.40;1.80;;;;;;;;;;5076336;28;20054;-33
2023/12/22 13:48:26;;;;;;;12.40;2.10;;;;;;;;;;5075890;28;20733;-34
2023/12/22 13:51:00;;;;;;;14.95;2.35;;;;;;;;;;5075811;28;20251;-33
2023/12/22 13:53:26;;;;;;;14.98;2.20;;;;;;;;;;5076363;28;20551;-34
2023/12/22 13:55:55;;;;;;;18.20;2.67;;;;;;;;;;5075745;28;20095;-34
2023/12/22 13:58:20;;;;;;;14.88;2.38;;;;;;;;;;5075673;28;20028;-33
2023/12/22 14:00:45;;;;;;;16.23;1.77;;;;;;;;;;5075471;28;20427;-34
2023/12/22 14:03:10;;;;;;;12.40;2.28;;;;;;;;;;5075326;28;20295;-33
2023/12/22 14:05:35;;;;;;;13.23;2.53;;;;;;;;;;5075060;28;20021;-33
2023/12/22 14:08:01;;;;;;;15.07;2.13;;;;;;;;;;5075310;28;20025;-33
2023/12/22 14:10:26;;;;;;;16.95;2.25;;;;;;;;;;5074955;28;20295;-34
2023/12/22 14:12:51;;;;;;;14.25;2.30;;;;;;;;;;5074871;28;20065;-33
2023/12/22 14:15:17;;;;;;;15.93;2.35;;;;;;;;;;5074482;28;20027;-32
2023/12/22 14:17:42;;;;;;;12.35;2.03;;;;;;;;;;5075237;28;20020;-33
2023/12/22 14:20:09;;;;;;;12.95;2.00;;;;;;;;;;5075468;28;20023;-32
2023/12/22 14:22:35;;;;;;;17.27;2.45;;;;;;;;;;5075819;28;20028;-31